NY/NJ Local METAR Reports

 

KNYC - NYC/Central Park, NY, USA
Distance from Hoboken: NE 4mi, 7km
Updated: 11/18/2018 2:51pm
Overcast
Overcast
 
Temperature: 45°F , 7°C
Dew Point: 27°F , -3°C
Humidity: 49%
Barometer: 30.32 inHg , 1026.8 hPa
Clouds: Overcast
Visibility: 10 miles , 16 km
Cloud details: Overcast 4500 ft
2018/11/18 19:51 KNYC 181951Z AUTO 10SM OVC045 07/M03 A3032 RMK AO2 SLP260 T00671028 $
KEWR - Newark, NJ, USA
Distance from Hoboken: WSW 8mi, 13km
Updated: 11/18/2018 2:51pm
Overcast
Overcast
 Wind from SSE
Wind: SSE 5 mph , 7 km/h
Temperature: 43°F , 6°C
Wind Chill: 40°F , 4°C
Dew Point: 28°F , -2°C
Humidity: 57%
Barometer: 30.31 inHg , 1026.4 hPa
Clouds: Overcast
Visibility: 10 miles , 16 km
Cloud details: Mostly cloudy 4400 ft
Mostly cloudy 10000 ft
Overcast 20000 ft
2018/11/18 19:51 KEWR 181951Z 15004KT 10SM BKN044 BKN100 OVC200 06/M02 A3031 RMK AO2 SLP262 T00611022
 
KLGA - NYC/La Guardia, NY, USA
Distance from Hoboken: ENE 8mi, 13km
Updated: 11/18/2018 2:51pm
Overcast
Overcast
 Wind from S
Wind: S 7 mph , 11 km/h
Temperature: 45°F , 7°C
Wind Chill: 41°F , 5°C
Dew Point: 25°F , -4°C
Humidity: 46%
Barometer: 30.30 inHg , 1026.1 hPa
Clouds: Overcast
Visibility: 10 miles , 16 km
Cloud details: Mostly cloudy 4500 ft
Mostly cloudy 10000 ft
Overcast 20000 ft
2018/11/18 19:51 KLGA 181951Z 17006KT 10SM BKN045 BKN100 OVC200 07/M04 A3030 RMK AO2 SLP261 T00671039
KTEB - Teterboro, NJ, USA
Distance from Hoboken: N 9mi, 14km
Updated: 11/18/2018 2:51pm
Overcast
Overcast
 Wind from calm
Wind: Calm
Temperature: 43°F , 6°C
Dew Point: 27°F , -3°C
Humidity: 53%
Barometer: 30.30 inHg , 1026.1 hPa
Clouds: Overcast
Visibility: 10 miles , 16 km
Cloud details: Overcast 4600 ft
2018/11/18 19:51 KTEB 181951Z 00000KT 10SM OVC046 06/M03 A3030 RMK AO2 SLP259 T00611028
 
KJFK - NYC/Jfk Arpt, NY, USA
Distance from Hoboken: ESE 16mi, 25km
Updated: 11/18/2018 2:51pm
Overcast
Overcast
 Wind from SSE
Wind: SSE 5 mph , 7 km/h
Temperature: 43°F , 6°C
Wind Chill: 40°F , 4°C
Dew Point: 30°F , -1°C
Humidity: 61%
Barometer: 30.32 inHg , 1026.8 hPa
Clouds: Overcast
Visibility: 10 miles , 16 km
Cloud details: Overcast 4400 ft
2018/11/18 19:51 KJFK 181951Z 15004KT 10SM OVC044 06/M01 A3032 RMK AO2 SLP267 T00611011 $
KCDW - Caldwell, NJ, USA
Distance from Hoboken: NW 16mi, 26km
Updated: 11/18/2018 2:53pm
Overcast
Overcast
 Wind from calm
Wind: Calm
Temperature: 41°F , 5°C
Dew Point: 27°F , -3°C
Humidity: 57%
Barometer: 30.31 inHg , 1026.4 hPa
Clouds: Overcast
Visibility: 10 miles , 16 km
Cloud details: Overcast 4300 ft
2018/11/18 19:53 KCDW 181953Z 00000KT 10SM OVC043 05/M03 A3031 RMK AO2 SLP269 T00501033
 
KMMU - Morristown Muni, NJ, USA
Distance from Hoboken: W 20mi, 33km
Updated: 11/18/2018 2:55pm
Overcast
Overcast
 Wind from calm
Wind: Calm
Temperature: 43°F , 6°C
Dew Point: 28°F , -2°C
Humidity: 57%
Barometer: 30.31 inHg , 1026.4 hPa
Clouds: Overcast
Visibility: 10 miles , 16 km
Cloud details: Overcast 4200 ft
2018/11/18 19:55 KMMU 181955Z 00000KT 10SM OVC042 06/M02 A3031
KHPN - White Plains, NY, USA
Distance from Hoboken: NE 28mi, 46km
Updated: 11/18/2018 2:56pm
Mostly cloudy
Mostly cloudy
 Wind from SSE
Wind: SSE 3 mph , 6 km/h
Temperature: 39°F , 4°C
Dew Point: 27°F , -3°C
Humidity: 61%
Barometer: 30.29 inHg , 1025.7 hPa
Clouds: Mostly cloudy
Visibility: 10 miles , 16 km
Cloud details: Mostly cloudy 4200 ft
2018/11/18 19:56 KHPN 181956Z 15003KT 10SM BKN042 04/M03 A3029 RMK AO2 SLP262 T00441033
 
KFRG - Farmingdale, NY, USA
Distance from Hoboken: E 32mi, 52km
Updated: 11/18/2018 2:53pm
Overcast
Overcast
 Wind from S
Wind: S 5 mph , 7 km/h
Temperature: 43°F , 6°C
Wind Chill: 40°F , 4°C
Dew Point: 28°F , -2°C
Humidity: 57%
Barometer: 30.32 inHg , 1026.8 hPa
Clouds: Overcast
Visibility: 10 miles , 16 km
Cloud details: Overcast 4700 ft
2018/11/18 19:53 KFRG 181953Z 18004KT 10SM OVC047 06/M02 A3032 RMK AO2 SLP266 T00561017
KSMQ - Somerville, NJ, USA
Distance from Hoboken: WSW 34mi, 55km
Updated: 11/18/2018 2:53pm
Overcast
Overcast
 Wind from calm
Wind: Calm
Temperature: 43°F , 6°C
Dew Point: 27°F , -3°C
Humidity: 53%
Barometer: 30.28 inHg , 1025.4 hPa
Clouds: Overcast
Visibility: 10 miles , 16 km
Cloud details: Overcast 4200 ft
2018/11/18 19:53 KSMQ 181953Z AUTO 00000KT 10SM OVC042 06/M03 A3028 RMK AO2 SLP257 T00561028
 
KBLM - Belmar/Farmdale, NJ, USA
Distance from Hoboken: S 40mi, 64km
Updated: 11/18/2018 2:56pm
Mostly cloudy
Mostly cloudy
 Wind from E
Wind: E 7 mph , 11 km/h
Temperature: 45°F , 7°C
Wind Chill: 41°F , 5°C
Dew Point: 34°F , 1°C
Humidity: 66%
Barometer: 30.31 inHg , 1026.4 hPa
Clouds: Mostly cloudy
Visibility: 10 miles , 16 km
Cloud details: Mostly cloudy 3400 ft
2018/11/18 19:56 KBLM 181956Z AUTO 10006KT 10SM BKN034 07/01 A3031 RMK AO2 SLP268 T00670006
K12N - Andover, NJ, USA
Distance from Hoboken: WNW 41mi, 67km
Updated: 11/18/2018 2:54pm

 Wind from S
Wind: S 3 mph , 6 km/h
Temperature: 37°F , 3°C
Dew Point: 23°F , -5°C
Humidity: 56%
Barometer: 30.28 inHg , 1025.4 hPa
2018/11/18 19:54 K12N 181954Z AUTO 17003KT 03/M05 A3028 RMK AO1 SLP261 T00331050
 
KFWN - Sussex, NJ, USA
Distance from Hoboken: NW 45mi, 72km
Updated: 11/18/2018 2:53pm
Overcast
Overcast
 Wind from calm
Wind: Calm
Temperature: 37°F , 3°C
Dew Point: 27°F , -3°C
Humidity: 65%
Barometer: 30.28 inHg , 1025.4 hPa
Clouds: Overcast
Visibility: 10 miles , 16 km
Cloud details: Overcast 3900 ft
2018/11/18 19:53 KFWN 181953Z AUTO 00000KT 10SM OVC039 03/M03 A3028 RMK AO2 SLP256 T00331033
KISP - Islip, NY, USA
Distance from Hoboken: E 49mi, 79km
Updated: 11/18/2018 2:56pm
Overcast
Overcast
 Wind from S
Wind: S 5 mph , 7 km/h
Temperature: 43°F , 6°C
Wind Chill: 40°F , 4°C
Dew Point: 32°F , 0°C
Humidity: 66%
Barometer: 30.31 inHg , 1026.4 hPa
Clouds: Overcast
Visibility: 10 miles , 16 km
Cloud details: Few Clouds 3700 ft
Overcast 4800 ft
2018/11/18 19:56 KISP 181956Z 17004KT 10SM FEW037 OVC048 06/00 A3031 RMK AO2 SLP264 T00610000